Bookmark and Share
Track history (hours):
 

Aniara

Last reported at 2014-Apr-20 15:31 UTC. Time now 2014-Apr-20 16:04 UTC.
Position N 35°28' E 139°41'.

Length 232 m; draft 9.6 m.

Type: Cargo ship. MMSI: 266282000.

NotesDate/timePositionNaut miles runAvg speedWind from/ knotsBaromVisibWave heightAir tempDewpointWater temp
2014-Apr-20 15:31N 35°28' E 139°41'0 0.0
2014-Apr-20 14:31N 35°28' E 139°41'0 0.0
2014-Apr-20 13:31N 35°28' E 139°41'0 0.0
2014-Apr-20 12:31N 35°28' E 139°41'0 0.0
2014-Apr-20 11:31N 35°28' E 139°41'0 0.0
2014-Apr-20 10:31N 35°28' E 139°41'2 2.1
2014-Apr-20 09:34N 35°27' E 139°44'9 9.2
2014-Apr-20 08:34N 35°18' E 139°45'1211.6
2014-Apr-20 07:33N 35°06' E 139°45'1514.9
2014-Apr-20 06:33N 34°53' E 139°36'235 5.4
2014-Apr-18 11:05N 34°03' E 134°57'1017.1
2014-Apr-18 10:30N 34°13' E 134°56'1516.1
2014-Apr-18 09:33N 34°26' E 135°05'1716.7
2014-Apr-18 08:33N 34°39' E 135°18'2 1.9
2014-Apr-18 07:31N 34°41' E 135°17'0 0.0
2014-Apr-18 06:31N 34°41' E 135°17'0 0.0
2014-Apr-18 05:31N 34°41' E 135°17'0 0.0
2014-Apr-18 04:19N 34°41' E 135°17'0 0.0
2014-Apr-18 03:25N 34°41' E 135°17'0 0.0
2014-Apr-18 02:31N 34°41' E 135°17'0 0.0
2014-Apr-18 01:31N 34°41' E 135°17'0 0.0
2014-Apr-18 00:31N 34°41' E 135°17'0 0.0
2014-Apr-17 23:25N 34°41' E 135°17'0 0.0
2014-Apr-17 22:33N 34°41' E 135°17'4 4.0
2014-Apr-17 21:33N 34°37' E 135°17'1312.8
2014-Apr-17 20:33N 34°27' E 135°08'1515.4
2014-Apr-17 19:33N 34°13' E 134°59'1311.7
2014-Apr-17 18:25N 34°00' E 134°58'20810.0
2014-Apr-16 21:31N 34°03' E 130°47'  

Dump ship's entire track history

sailing weather and tide predictions

Aniara — SKJC — position and weather